createdAt,value
2022-10-30T00:00:47.584Z,101323.97
2022-10-30T00:03:16.510Z,101319.19
2022-10-30T00:05:50.008Z,101319.06
2022-10-30T00:08:23.545Z,101313.72
2022-10-30T00:10:51.134Z,101313.00
2022-10-30T00:13:22.462Z,101314.41
2022-10-30T00:15:57.649Z,101307.97
2022-10-30T00:18:24.982Z,101309.88
2022-10-30T00:20:52.350Z,101302.94
2022-10-30T00:23:22.152Z,101307.13
2022-10-30T00:25:49.617Z,101304.38
2022-10-30T00:28:22.765Z,101302.13
2022-10-30T00:30:49.734Z,101295.66
2022-10-30T00:33:20.370Z,101302.00
2022-10-30T00:35:53.215Z,101293.75
2022-10-30T00:38:23.880Z,101297.00
2022-10-30T00:40:54.591Z,101292.66
2022-10-30T00:46:46.133Z,101284.44
2022-10-30T00:49:22.476Z,101294.84
2022-10-30T00:51:55.336Z,101285.03
2022-10-30T00:54:27.646Z,101277.25
2022-10-30T00:57:05.325Z,101279.06
2022-10-30T00:59:37.747Z,101291.97
2022-10-30T01:02:18.740Z,101278.56
2022-10-30T01:04:51.532Z,101284.56
2022-10-30T01:07:29.355Z,101279.91
2022-10-30T01:09:56.510Z,101271.13
2022-10-30T01:12:38.980Z,101265.19
2022-10-30T01:15:15.899Z,101261.72
2022-10-30T01:18:45.307Z,101255.63
2022-10-30T01:22:26.046Z,101255.72
2022-10-30T01:26:07.542Z,101259.91
2022-10-30T01:29:02.812Z,101264.34
2022-10-30T01:31:40.387Z,101258.75
2022-10-30T01:34:47.680Z,101258.06
2022-10-30T01:37:42.315Z,101253.03
2022-10-30T01:40:18.435Z,101252.50
2022-10-30T01:42:56.972Z,101248.84
2022-10-30T01:46:30.854Z,101241.19
2022-10-30T01:50:25.573Z,101241.75
2022-10-30T01:53:57.234Z,101236.00
2022-10-30T01:59:58.458Z,101222.63
2022-10-30T02:02:29.045Z,101217.84
2022-10-30T02:05:02.140Z,101220.97
2022-10-30T02:07:32.877Z,101223.84
2022-10-30T02:10:00.835Z,101224.53
2022-10-30T02:12:32.333Z,101215.72
2022-10-30T02:15:02.112Z,101224.03
2022-10-30T02:17:35.495Z,101215.91
2022-10-30T02:20:24.681Z,101213.94
2022-10-30T02:23:12.107Z,101209.91
2022-10-30T02:25:46.823Z,101211.84
2022-10-30T02:28:23.695Z,101208.09
2022-10-30T02:31:11.122Z,101199.28
2022-10-30T02:36:35.120Z,101198.19
2022-10-30T02:39:02.988Z,101205.63
2022-10-30T02:41:41.659Z,101199.94
2022-10-30T02:44:09.473Z,101197.31
2022-10-30T02:46:42.466Z,101198.47
2022-10-30T02:55:16.410Z,101198.47
2022-10-30T02:57:50.328Z,101195.28
2022-10-30T03:00:27.598Z,101193.66
2022-10-30T03:03:06.035Z,101194.25
2022-10-30T03:08:48.865Z,101189.44
2022-10-30T03:11:48.073Z,101189.34
2022-10-30T03:14:29.880Z,101189.38
2022-10-30T03:17:49.590Z,101187.19
2022-10-30T03:23:01.663Z,101189.34
2022-10-30T03:25:35.470Z,101199.13
2022-10-30T03:28:32.134Z,101201.63
2022-10-30T03:31:42.973Z,101192.41
2022-10-30T03:34:27.956Z,101193.75
2022-10-30T04:00:27.930Z,101191.03
2022-10-30T04:03:22.762Z,101198.13
2022-10-30T04:06:14.545Z,101204.16
2022-10-30T04:08:44.833Z,101193.75
2022-10-30T04:11:12.388Z,101195.78
2022-10-30T04:13:42.666Z,101196.22
2022-10-30T04:16:15.590Z,101194.63
2022-10-30T04:18:48.644Z,101193.47
2022-10-30T04:21:18.933Z,101208.63
2022-10-30T04:24:04.444Z,101215.28
2022-10-30T04:26:32.023Z,101217.63
2022-10-30T04:28:59.973Z,101221.63
2022-10-30T04:31:38.135Z,101227.44
2022-10-30T04:34:08.615Z,101221.84
2022-10-30T04:36:36.375Z,101226.59
2022-10-30T04:39:15.613Z,101227.06
2022-10-30T04:42:03.176Z,101220.31
2022-10-30T04:44:47.449Z,101215.00
2022-10-30T04:47:27.265Z,101195.56
2022-10-30T04:49:55.166Z,101188.50
2022-10-30T04:52:53.485Z,101185.44
2022-10-30T04:55:23.841Z,101182.47
2022-10-30T04:58:10.122Z,101182.06
2022-10-30T05:00:41.696Z,101186.63
2022-10-30T05:03:27.118Z,101188.41
2022-10-30T05:06:30.786Z,101175.63
2022-10-30T05:09:01.897Z,101173.03
2022-10-30T05:11:50.652Z,101169.97
2022-10-30T05:14:18.215Z,101183.34
2022-10-30T05:16:45.666Z,101174.78
2022-10-30T05:19:43.976Z,101169.88
2022-10-30T05:22:15.459Z,101165.97
2022-10-30T05:29:05.656Z,101146.34
2022-10-30T05:32:11.029Z,101154.09
2022-10-30T05:46:10.318Z,101151.91
2022-10-30T05:48:55.046Z,101150.34
2022-10-30T05:51:38.047Z,101154.31
2022-10-30T05:54:56.276Z,101164.19
2022-10-30T05:57:53.052Z,101164.91
2022-10-30T06:00:51.841Z,101149.59
2022-10-30T06:03:53.885Z,101158.59
2022-10-30T06:06:21.683Z,101158.44
2022-10-30T06:09:07.261Z,101167.03
2022-10-30T06:11:37.554Z,101185.19
2022-10-30T06:14:25.284Z,101206.50
2022-10-30T06:17:00.162Z,101179.69
2022-10-30T06:25:02.437Z,101167.25
2022-10-30T06:28:13.536Z,101159.38
2022-10-30T06:30:57.124Z,101147.53
2022-10-30T06:33:30.434Z,101177.75
2022-10-30T06:36:15.330Z,101163.56
2022-10-30T06:38:58.837Z,101172.78
2022-10-30T06:41:30.302Z,101168.34
2022-10-30T06:44:00.640Z,101162.59
2022-10-30T06:46:40.040Z,101154.41
2022-10-30T06:49:10.252Z,101145.09
2022-10-30T06:51:37.757Z,101134.75
2022-10-30T06:55:09.758Z,101138.91
2022-10-30T06:57:39.653Z,101148.56
2022-10-30T07:00:36.320Z,101154.31
2022-10-30T07:04:27.762Z,101154.91
2022-10-30T07:06:57.314Z,101172.34
2022-10-30T07:09:35.607Z,101170.63
2022-10-30T07:12:11.350Z,101176.34
2022-10-30T07:14:43.917Z,101199.50
2022-10-30T07:17:14.012Z,101196.88
2022-10-30T07:19:55.912Z,101190.31
2022-10-30T07:22:25.207Z,101194.72
2022-10-30T07:24:55.496Z,101198.81
2022-10-30T07:28:38.985Z,101205.47
2022-10-30T07:31:42.457Z,101199.63
2022-10-30T07:35:23.426Z,101202.84
2022-10-30T07:37:53.433Z,101203.16
2022-10-30T07:40:46.625Z,101213.13
2022-10-30T07:43:33.671Z,101205.66
2022-10-30T07:46:37.265Z,101206.75
2022-10-30T07:49:04.531Z,101206.88
2022-10-30T07:51:47.813Z,101202.00
2022-10-30T07:54:42.495Z,101201.16
2022-10-30T07:57:23.725Z,101201.91
2022-10-30T08:00:11.662Z,101204.78
2022-10-30T08:02:51.782Z,101207.66
2022-10-30T08:09:01.168Z,101205.88
2022-10-30T08:11:28.242Z,101201.41
2022-10-30T08:13:55.204Z,101201.25
2022-10-30T08:16:22.257Z,101194.00
2022-10-30T08:18:52.898Z,101191.09
2022-10-30T08:21:41.382Z,101194.44
2022-10-30T08:24:16.611Z,101195.94
2022-10-30T08:26:43.919Z,101190.28
2022-10-30T08:29:43.948Z,101191.38
2022-10-30T08:32:11.628Z,101195.28
2022-10-30T08:34:38.779Z,101197.88
2022-10-30T08:37:08.179Z,101203.72
2022-10-30T08:39:41.260Z,101206.63
2022-10-30T08:42:08.207Z,101210.53
2022-10-30T08:44:50.994Z,101199.00
2022-10-30T08:47:18.311Z,101204.13
2022-10-30T08:49:45.485Z,101210.16
2022-10-30T08:52:21.870Z,101210.38
2022-10-30T08:54:49.635Z,101209.47
2022-10-30T08:57:16.775Z,101208.50
2022-10-30T08:59:43.742Z,101204.38
2022-10-30T09:02:13.865Z,101200.09
2022-10-30T09:04:44.137Z,101206.66
2022-10-30T09:07:13.032Z,101201.38
2022-10-30T09:09:43.417Z,101214.13
2022-10-30T09:12:19.253Z,101213.59
2022-10-30T09:14:52.967Z,101217.94
2022-10-30T09:17:20.297Z,101206.81
2022-10-30T09:23:06.546Z,101222.34
2022-10-30T09:25:33.869Z,101198.94
2022-10-30T09:28:00.996Z,101196.41
2022-10-30T09:30:28.245Z,101196.91
2022-10-30T09:33:04.647Z,101200.97
2022-10-30T09:35:33.017Z,101203.66
2022-10-30T09:38:00.809Z,101195.94
2022-10-30T09:41:47.120Z,101205.75
2022-10-30T09:44:34.723Z,101194.50
2022-10-30T09:47:40.754Z,101201.47
2022-10-30T09:51:10.082Z,101191.03
2022-10-30T09:58:17.625Z,101181.41
2022-10-30T10:01:24.384Z,101196.09
2022-10-30T10:04:36.277Z,101194.50
2022-10-30T10:07:21.732Z,101186.84
2022-10-30T10:10:43.051Z,101183.34
2022-10-30T10:14:13.133Z,101180.44
2022-10-30T10:17:07.598Z,101180.75
2022-10-30T10:19:54.764Z,101179.34
2022-10-30T10:23:49.021Z,101186.53
2022-10-30T10:26:54.614Z,101190.53
2022-10-30T10:29:42.574Z,101182.31
2022-10-30T10:32:28.426Z,101179.88
2022-10-30T10:35:50.380Z,101196.47
2022-10-30T10:38:42.435Z,101187.38
2022-10-30T10:41:33.308Z,101188.06
2022-10-30T10:44:41.171Z,101183.75
2022-10-30T10:48:17.045Z,101180.25
2022-10-30T10:51:06.629Z,101179.16
2022-10-30T10:53:59.582Z,101183.16
2022-10-30T10:56:39.634Z,101172.44
2022-10-30T10:59:16.918Z,101174.44
2022-10-30T11:02:31.867Z,101176.75
2022-10-30T11:05:43.911Z,101168.63
2022-10-30T11:08:35.455Z,101171.94
2022-10-30T11:11:06.287Z,101169.78
2022-10-30T11:13:43.734Z,101162.34
2022-10-30T11:16:44.213Z,101157.31
2022-10-30T11:19:11.284Z,101157.63
2022-10-30T11:21:51.551Z,101158.25
2022-10-30T11:24:47.313Z,101152.28
2022-10-30T11:27:24.056Z,101150.09
2022-10-30T11:30:04.865Z,101149.09
2022-10-30T11:32:34.911Z,101152.19
2022-10-30T11:35:08.222Z,101145.47
2022-10-30T11:37:43.337Z,101148.59
2022-10-30T11:40:18.416Z,101155.94
2022-10-30T11:43:05.044Z,101153.28
2022-10-30T11:45:41.699Z,101160.38
2022-10-30T11:48:35.742Z,101163.84
2022-10-30T11:51:05.218Z,101148.88
2022-10-30T11:53:40.190Z,101155.19
2022-10-30T11:56:24.881Z,101161.22
2022-10-30T11:59:00.561Z,101150.38
2022-10-30T12:01:37.174Z,101156.69
2022-10-30T12:04:25.048Z,101160.50
2022-10-30T12:07:25.173Z,101158.81
2022-10-30T12:10:01.695Z,101161.63
2022-10-30T12:12:42.077Z,101151.50
2022-10-30T12:15:15.287Z,101157.44
2022-10-30T12:18:06.552Z,101161.63
2022-10-30T12:20:37.766Z,101160.09
2022-10-30T12:23:21.258Z,101167.34
2022-10-30T12:25:56.324Z,101173.38
2022-10-30T12:29:20.274Z,101166.16
2022-10-30T12:35:49.697Z,101158.72
2022-10-30T12:39:37.021Z,101155.78
2022-10-30T12:42:23.500Z,101146.19
2022-10-30T12:45:30.179Z,101144.72
2022-10-30T12:48:28.791Z,101143.34
2022-10-30T12:52:07.588Z,101149.88
2022-10-30T12:56:02.226Z,101148.88
2022-10-30T12:59:08.576Z,101147.19
2022-10-30T13:05:46.112Z,101149.25
2022-10-30T13:09:44.582Z,101154.78
2022-10-30T13:12:42.651Z,101136.56
2022-10-30T13:16:08.343Z,101138.50
2022-10-30T13:19:10.537Z,101146.19
2022-10-30T13:22:19.002Z,101143.50
2022-10-30T13:25:38.256Z,101145.78
2022-10-30T13:28:56.198Z,101140.31
2022-10-30T13:31:58.994Z,101139.00
2022-10-30T13:35:08.763Z,101143.97
2022-10-30T13:38:56.309Z,101139.41
2022-10-30T13:41:51.497Z,101140.66
2022-10-30T13:45:02.386Z,101137.09
2022-10-30T13:48:33.831Z,101135.50
2022-10-30T13:52:00.609Z,101133.56
2022-10-30T13:54:51.511Z,101135.13
2022-10-30T13:57:56.543Z,101138.00
2022-10-30T14:00:57.818Z,101137.97
2022-10-30T14:03:51.248Z,101144.97
2022-10-30T14:07:29.434Z,101147.97
2022-10-30T14:18:41.303Z,101153.22
2022-10-30T14:21:32.433Z,101150.13
2022-10-30T14:24:34.243Z,101155.47
2022-10-30T14:27:30.277Z,101154.66
2022-10-30T14:29:58.487Z,101157.97
2022-10-30T14:32:30.995Z,101157.03
2022-10-30T14:35:23.167Z,101151.66
2022-10-30T14:38:23.519Z,101147.13
2022-10-30T14:45:47.772Z,101156.31
2022-10-30T14:49:19.283Z,101142.28
2022-10-30T14:52:19.339Z,101152.97
2022-10-30T14:56:05.660Z,101158.66
2022-10-30T14:58:42.354Z,101159.00
2022-10-30T15:01:50.431Z,101158.00
2022-10-30T15:06:17.379Z,101157.19
2022-10-30T15:09:39.521Z,101161.31
2022-10-30T15:13:51.475Z,101155.63
2022-10-30T15:16:41.918Z,101152.94
2022-10-30T15:19:23.885Z,101152.22
2022-10-30T15:21:56.634Z,101160.47
2022-10-30T15:24:32.411Z,101155.78
2022-10-30T15:27:21.436Z,101157.03
2022-10-30T15:33:02.947Z,101155.09
2022-10-30T15:35:52.979Z,101162.78
2022-10-30T15:38:39.352Z,101162.81
2022-10-30T15:41:19.147Z,101162.06
2022-10-30T15:43:49.149Z,101155.03
2022-10-30T15:46:19.817Z,101165.94
2022-10-30T15:48:51.810Z,101160.72
2022-10-30T15:51:23.838Z,101163.31
2022-10-30T15:54:01.903Z,101165.06
2022-10-30T15:57:17.841Z,101169.31
2022-10-30T15:59:40.222Z,101172.41
2022-10-30T16:02:31.608Z,101169.88
2022-10-30T16:04:59.425Z,101168.69
2022-10-30T16:07:48.173Z,101165.47
2022-10-30T16:10:28.223Z,101169.78
2022-10-30T16:13:19.788Z,101162.19
2022-10-30T16:15:47.945Z,101160.56
2022-10-30T16:18:36.619Z,101151.94
2022-10-30T16:21:16.613Z,101158.78
2022-10-30T16:23:57.162Z,101153.16
2022-10-30T16:26:42.446Z,101153.50
2022-10-30T16:29:29.975Z,101156.63
2022-10-30T16:32:01.534Z,101153.22
2022-10-30T16:34:36.642Z,101155.19
2022-10-30T16:37:40.862Z,101152.25
2022-10-30T16:40:28.459Z,101158.47
2022-10-30T16:43:03.588Z,101151.41
2022-10-30T16:45:55.106Z,101160.13
2022-10-30T16:49:23.373Z,101163.75
2022-10-30T16:52:06.651Z,101163.06
2022-10-30T16:55:27.565Z,101169.13
2022-10-30T16:57:58.716Z,101166.88
2022-10-30T17:00:35.411Z,101166.94
2022-10-30T17:03:13.970Z,101174.59
2022-10-30T17:05:56.090Z,101172.50
2022-10-30T17:08:22.921Z,101171.28
2022-10-30T17:11:07.111Z,101172.78
2022-10-30T17:13:52.404Z,101176.97
2022-10-30T17:16:31.913Z,101181.69
2022-10-30T17:19:30.911Z,101167.44
2022-10-30T17:22:08.034Z,101171.09
2022-10-30T17:24:38.441Z,101181.75
2022-10-30T17:27:26.024Z,101180.09
2022-10-30T17:29:57.437Z,101185.50
2022-10-30T17:32:43.086Z,101183.09
2022-10-30T17:35:19.450Z,101188.53
2022-10-30T17:37:46.572Z,101194.03
2022-10-30T17:40:14.977Z,101196.56
2022-10-30T17:42:42.610Z,101196.94
2022-10-30T17:45:15.915Z,101198.03
2022-10-30T17:47:43.367Z,101197.03
2022-10-30T17:50:11.576Z,101200.13
2022-10-30T17:52:38.760Z,101199.94
2022-10-30T17:55:30.070Z,101202.50
2022-10-30T17:58:02.878Z,101205.50
2022-10-30T18:00:32.680Z,101204.56
2022-10-30T18:03:00.650Z,101203.56
2022-10-30T18:05:32.392Z,101210.00
2022-10-30T18:07:59.827Z,101194.50
2022-10-30T18:10:27.442Z,101205.75
2022-10-30T18:12:54.489Z,101201.00
2022-10-30T18:15:36.860Z,101201.00
2022-10-30T18:18:09.997Z,101195.25
2022-10-30T18:20:37.511Z,101197.16
2022-10-30T18:23:32.178Z,101201.22
2022-10-30T18:26:08.816Z,101202.19
2022-10-30T18:28:35.919Z,101196.06
2022-10-30T18:31:08.231Z,101203.59
2022-10-30T18:33:35.756Z,101200.41
2022-10-30T18:36:02.809Z,101203.84
2022-10-30T18:38:35.383Z,101207.44
2022-10-30T18:41:03.057Z,101204.69
2022-10-30T18:43:32.883Z,101204.53
2022-10-30T18:46:08.698Z,101204.72
2022-10-30T18:48:35.616Z,101203.84
2022-10-30T18:51:13.708Z,101210.97
2022-10-30T18:53:51.341Z,101204.16
2022-10-30T18:56:28.236Z,101203.31
2022-10-30T18:59:00.798Z,101207.13
2022-10-30T19:01:37.615Z,101208.91
2022-10-30T19:04:11.024Z,101206.16
2022-10-30T19:06:38.788Z,101204.69
2022-10-30T19:09:15.617Z,101198.94
2022-10-30T19:11:51.925Z,101188.50
2022-10-30T19:14:22.116Z,101191.88
2022-10-30T19:16:49.183Z,101188.31
2022-10-30T19:19:17.871Z,101191.41
2022-10-30T19:21:45.108Z,101190.66
2022-10-30T19:24:14.994Z,101186.25
2022-10-30T19:26:42.199Z,101190.59
2022-10-30T19:29:10.538Z,101192.56
2022-10-30T19:31:39.902Z,101195.13
2022-10-30T19:34:07.096Z,101200.41
2022-10-30T19:36:37.653Z,101198.47
2022-10-30T19:39:24.378Z,101205.06
2022-10-30T19:41:52.041Z,101198.94
2022-10-30T19:44:28.781Z,101197.09
2022-10-30T19:47:19.762Z,101191.78
2022-10-30T19:49:49.929Z,101191.72
2022-10-30T19:52:28.166Z,101189.25
2022-10-30T19:54:59.595Z,101188.28
2022-10-30T19:57:26.990Z,101191.75
2022-10-30T19:59:54.403Z,101189.59
2022-10-30T20:05:29.901Z,101195.84
2022-10-30T20:08:15.490Z,101191.22
2022-10-30T20:11:02.046Z,101190.63
2022-10-30T20:13:35.151Z,101186.59
2022-10-30T20:16:14.352Z,101195.19
2022-10-30T20:18:44.589Z,101181.31
2022-10-30T20:21:27.774Z,101187.72
2022-10-30T20:24:12.777Z,101181.84
2022-10-30T20:27:01.627Z,101183.00
2022-10-30T20:29:29.890Z,101183.84
2022-10-30T20:32:12.968Z,101183.78
2022-10-30T20:34:47.896Z,101192.13
2022-10-30T20:37:15.057Z,101191.69
2022-10-30T20:39:44.934Z,101196.81
2022-10-30T20:42:31.985Z,101202.44
2022-10-30T20:45:27.315Z,101206.78
2022-10-30T20:47:54.738Z,101207.19
2022-10-30T20:50:35.701Z,101207.41
2022-10-30T20:53:03.258Z,101213.75
2022-10-30T20:55:35.297Z,101213.94
2022-10-30T20:58:08.662Z,101217.75
2022-10-30T21:00:44.499Z,101215.63
2022-10-30T21:03:15.020Z,101212.41
2022-10-30T21:08:31.633Z,101215.94
2022-10-30T21:11:06.668Z,101212.19
2022-10-30T21:13:43.907Z,101213.72
2022-10-30T21:16:23.143Z,101212.59
2022-10-30T21:19:05.256Z,101213.44
2022-10-30T21:21:35.166Z,101207.56
2022-10-30T21:24:02.665Z,101202.63
2022-10-30T21:26:29.795Z,101213.31
2022-10-30T21:29:00.501Z,101208.31
2022-10-30T21:31:33.893Z,101201.06
2022-10-30T21:34:01.367Z,101205.56
2022-10-30T21:36:34.552Z,101198.78
2022-10-30T21:39:09.622Z,101206.72
2022-10-30T21:41:42.527Z,101205.66
2022-10-30T21:44:10.398Z,101202.50
2022-10-30T21:46:37.622Z,101209.22
2022-10-30T21:49:07.917Z,101201.78
2022-10-30T21:51:35.047Z,101194.97
2022-10-30T21:54:02.199Z,101199.88
2022-10-30T21:56:30.012Z,101194.16
2022-10-30T21:59:06.737Z,101196.06
2022-10-30T22:01:37.625Z,101194.69
2022-10-30T22:04:08.677Z,101197.75
2022-10-30T22:06:41.570Z,101202.53
2022-10-30T22:09:09.163Z,101206.50
2022-10-30T22:11:36.505Z,101205.66
2022-10-30T22:14:05.328Z,101210.88
2022-10-30T22:16:36.596Z,101212.91
2022-10-30T22:19:06.986Z,101218.44
2022-10-30T22:21:34.571Z,101220.09
2022-10-30T22:24:03.429Z,101217.91
2022-10-30T22:26:31.088Z,101218.66
2022-10-30T22:29:00.728Z,101220.41
2022-10-30T22:31:30.299Z,101214.16
2022-10-30T22:34:00.989Z,101217.06
2022-10-30T22:36:32.802Z,101217.06
2022-10-30T22:39:09.996Z,101211.84
2022-10-30T22:41:38.323Z,101212.56
2022-10-30T22:44:08.661Z,101217.34
2022-10-30T22:46:36.827Z,101217.34
2022-10-30T22:49:04.195Z,101219.50
2022-10-30T22:51:34.350Z,101227.22
2022-10-30T22:54:06.148Z,101217.00
2022-10-30T22:56:36.180Z,101221.75
2022-10-30T22:59:11.838Z,101216.72
2022-10-30T23:01:40.707Z,101219.84
2022-10-30T23:04:12.817Z,101213.00
2022-10-30T23:06:39.886Z,101221.25
2022-10-30T23:09:15.206Z,101214.69
2022-10-30T23:11:42.489Z,101215.72
2022-10-30T23:14:09.476Z,101213.88
2022-10-30T23:16:36.731Z,101216.69
2022-10-30T23:19:03.820Z,101216.88
2022-10-30T23:21:32.186Z,101216.88
2022-10-30T23:24:01.440Z,101219.66
2022-10-30T23:26:35.152Z,101213.50
2022-10-30T23:29:03.860Z,101214.44
2022-10-30T23:31:41.711Z,101218.69
2022-10-30T23:34:15.585Z,101214.66
2022-10-30T23:36:43.552Z,101211.88
2022-10-30T23:39:16.301Z,101219.84
2022-10-30T23:41:43.916Z,101218.41
2022-10-30T23:44:16.519Z,101219.72
2022-10-30T23:46:43.710Z,101228.22
2022-10-30T23:49:10.720Z,101214.56
2022-10-30T23:51:37.846Z,101213.41
2022-10-30T23:54:05.462Z,101218.28
2022-10-30T23:56:32.553Z,101213.25
2022-10-30T23:59:00.238Z,101218.63
